createdAt,value
2022-10-01T01:10:48.687Z,91.48
2022-10-01T01:27:29.815Z,94.18
2022-10-01T03:01:27.277Z,99.50
2022-10-01T03:33:52.195Z,99.99
2022-10-01T04:39:00.879Z,99.99
2022-10-01T04:39:57.608Z,99.99
2022-10-01T04:40:57.394Z,99.99
2022-10-01T04:41:57.443Z,99.99
2022-10-01T04:42:57.354Z,99.99
2022-10-01T04:43:57.429Z,99.99
2022-10-01T04:44:57.380Z,99.99
2022-10-01T04:45:57.342Z,99.99
2022-10-01T04:46:57.314Z,99.99
2022-10-01T04:47:57.311Z,99.99
2022-10-01T04:48:57.369Z,99.99
2022-10-01T04:49:57.327Z,99.99
2022-10-01T04:50:57.368Z,99.99
2022-10-01T04:51:57.284Z,99.99
2022-10-01T04:52:57.324Z,99.99
2022-10-01T04:53:57.306Z,99.99
2022-10-01T04:54:57.243Z,99.99
2022-10-01T04:55:57.392Z,99.99
2022-10-01T04:56:57.301Z,99.99
2022-10-01T04:57:58.374Z,99.99
2022-10-01T04:58:57.210Z,99.99
2022-10-01T04:59:59.329Z,99.99
2022-10-01T05:08:43.371Z,99.99
2022-10-01T05:09:43.866Z,99.99
2022-10-01T05:10:43.756Z,99.99
2022-10-01T05:11:44.022Z,99.99
2022-10-01T05:12:43.782Z,99.99
2022-10-01T05:13:43.836Z,99.99
2022-10-01T05:14:43.867Z,99.99
2022-10-01T05:15:43.762Z,99.99
2022-10-01T05:16:43.733Z,99.99
2022-10-01T05:17:43.742Z,99.99
2022-10-01T05:18:43.690Z,99.99
2022-10-01T05:19:43.665Z,99.99
2022-10-01T06:00:38.361Z,99.99
2022-10-01T09:19:47.983Z,91.24
2022-10-01T09:20:48.273Z,91.17
2022-10-01T09:21:48.208Z,91.58
2022-10-01T09:22:48.194Z,91.58
2022-10-01T09:23:48.169Z,92.70
2022-10-01T09:24:48.169Z,91.52
2022-10-01T09:25:48.141Z,91.52
2022-10-01T09:26:48.380Z,91.93
2022-10-01T09:27:48.135Z,91.52
2022-10-01T09:28:48.127Z,92.60
2022-10-01T09:29:48.177Z,92.19
2022-10-01T09:30:48.158Z,91.83
2022-10-01T09:31:48.128Z,92.74
2022-10-01T09:32:48.124Z,92.84
2022-10-01T09:33:48.082Z,92.64
2022-10-01T09:34:48.193Z,93.76
2022-10-01T09:35:48.028Z,92.33
2022-10-01T09:36:48.122Z,92.58
2022-10-01T09:37:48.068Z,93.35
2022-10-01T09:38:47.991Z,93.61
2022-10-01T09:39:48.030Z,92.09
2022-10-01T09:40:47.977Z,91.68
2022-10-01T09:41:48.018Z,91.54
2022-10-01T09:42:47.981Z,91.19
2022-10-01T09:43:47.985Z,91.60
2022-10-01T09:44:47.940Z,91.60
2022-10-01T09:45:48.032Z,90.75
2022-10-01T10:32:03.323Z,95.89
2022-10-01T11:58:57.488Z,89.98
2022-10-01T11:59:58.396Z,88.21
2022-10-01T12:00:58.273Z,89.32
2022-10-01T12:01:58.875Z,89.73
2022-10-01T12:38:23.210Z,91.09
2022-10-01T13:16:25.763Z,85.84
2022-10-01T13:44:26.883Z,80.76
2022-10-01T13:57:15.791Z,71.53
